Date,TemperatureHighF,TemperatureAvgF,TemperatureLowF,DewpointHighF,DewpointAvgF,DewpointLowF,HumidityHigh,HumidityAvg,HumidityLow,PressureMaxIn,PressureMinIn,WindSpeedMaxMPH,WindSpeedAvgMPH,GustSpeedMaxMPH,PrecipitationSumIn
2014-1-1,28.4,21.1,17.3,0.0,0.0,0.0,0,0,100,30.37,30.14,21,6,24,0.00
2014-1-2,20.4,8.4,-1.8,0.0,0.0,0.0,0,0,100,30.36,29.91,21,7,26,0.00
2014-1-3,17.1,4.5,-1.6,0.0,0.0,0.0,0,0,100,30.37,29.76,28,4,28,0.00
2014-1-4,25.2,14.0,0.1,0.0,0.0,0.0,0,0,100,30.48,30.21,19,4,20,0.00
2014-1-5,38.1,29.3,17.7,0.0,0.0,0.0,0,0,100,30.29,29.95,19,3,19,0.03
2014-1-6,53.2,40.3,28.9,0.0,0.0,0.0,0,0,100,29.95,29.23,24,7,24,0.62
2014-1-7,29.1,14.9,7.4,0.0,0.0,0.0,0,0,100,30.16,29.44,32,10,32,0.00
2014-1-8,22.9,14.5,7.3,0.0,0.0,0.0,0,0,100,30.42,30.16,24,9,24,0.00
2014-1-9,28.9,20.5,15.8,0.0,0.0,0.0,0,0,100,30.62,30.39,23,4,23,0.00
2014-1-10,33.9,25.3,13.0,0.0,0.0,0.0,0,0,100,30.59,30.26,12,1,12,0.00
2014-1-11,55.1,43.3,32.7,0.0,0.0,0.0,0,0,100,30.26,29.22,18,5,19,0.54
2014-1-12,53.0,43.6,36.3,0.0,0.0,0.0,0,0,100,29.92,29.22,30,7,30,0.01
2014-1-13,48.9,39.9,31.1,0.0,0.0,0.0,0,0,100,30.10,29.86,19,6,19,0.00
2014-1-14,47.8,43.7,40.3,0.0,0.0,0.0,0,0,100,29.87,29.56,17,4,18,0.81
2014-1-15,49.1,38.3,33.2,0.0,0.0,0.0,0,0,100,30.00,29.71,13,2,16,0.01
2014-1-16,37.2,34.1,30.5,0.0,0.0,0.0,0,0,100,29.92,29.84,14,1,14,0.00
2014-1-17,47.2,37.7,32.9,0.0,0.0,0.0,0,0,100,29.95,29.87,15,2,15,0.00
2014-1-18,38.3,33.1,31.2,0.0,0.0,0.0,0,0,100,29.91,29.61,12,2,12,0.42
2014-1-19,32.2,30.2,27.1,0.0,0.0,0.0,0,0,100,29.70,29.50,27,7,27,0.04
2014-1-20,38.6,31.3,17.5,0.0,0.0,0.0,0,0,100,29.87,29.46,23,8,23,0.13
2014-1-21,17.5,12.7,8.7,0.0,0.0,0.0,0,0,100,30.07,29.87,19,6,19,0.00
2014-1-22,20.9,11.2,5.9,0.0,0.0,0.0,0,0,100,29.89,29.62,18,8,21,0.00
2014-1-23,22.0,11.0,2.9,0.0,0.0,0.0,0,0,100,30.10,29.86,19,5,19,0.00
2014-1-24,18.6,11.1,3.3,0.0,0.0,0.0,0,0,100,30.22,30.02,24,7,24,0.00
2014-1-25,36.8,25.9,14.2,0.0,0.0,0.0,0,0,100,30.02,29.27,26,9,26,0.00
2014-1-26,25.3,19.7,14.1,0.0,0.0,0.0,0,0,100,29.87,29.29,29,8,29,0.00
2014-1-27,45.4,28.4,20.0,0.0,0.0,0.0,0,0,100,29.95,29.47,27,6,27,0.02
2014-1-28,23.4,16.7,11.1,0.0,0.0,0.0,0,0,100,30.28,29.95,18,5,18,0.00
2014-1-29,29.3,19.7,14.7,0.0,0.0,0.0,0,0,100,30.22,29.93,20,4,20,0.00
2014-1-30,33.1,21.5,12.7,0.0,0.0,0.0,0,0,100,30.42,30.18,15,5,15,0.00
2014-1-31,43.1,31.5,20.7,0.0,0.0,0.0,0,0,100,30.18,29.99,16,4,16,0.00
2014-2-1,47.2,35.5,29.0,0.0,0.0,0.0,0,0,100,30.32,30.01,17,3,17,0.00
2014-2-2,48.3,38.9,33.6,0.0,0.0,0.0,0,0,100,30.03,29.84,8,1,9,0.07
2014-2-3,37.7,31.4,25.1,0.0,0.0,0.0,0,0,100,30.28,30.02,15,2,15,0.00
2014-2-4,39.2,28.6,20.3,0.0,0.0,0.0,0,0,100,30.44,30.27,8,2,10,0.03
2014-2-5,34.7,28.0,21.4,0.0,0.0,0.0,0,0,100,30.33,29.62,29,6,29,0.00
2014-2-6,32.9,22.2,17.6,0.0,0.0,0.0,0,0,100,30.25,29.94,18,3,18,0.25
2014-2-7,33.6,22.8,14.2,0.0,0.0,0.0,0,0,100,30.22,30.11,19,6,19,0.00
2014-2-8,33.4,25.5,14.9,0.0,0.0,0.0,0,0,100,30.26,30.10,19,3,19,0.01
2014-2-9,38.7,26.3,20.2,0.0,0.0,0.0,0,0,100,30.16,29.92,12,2,12,0.01
2014-2-10,31.1,23.1,15.3,0.0,0.0,0.0,0,0,100,30.19,29.88,18,4,18,0.08
2014-2-11,27.7,17.0,9.9,0.0,0.0,0.0,0,0,100,30.40,30.19,20,5,20,0.00
2014-2-12,34.9,16.6,4.2,0.0,0.0,0.0,0,0,100,30.56,30.40,15,2,16,0.00
2014-2-13,33.1,26.9,18.9,0.0,0.0,0.0,0,0,100,30.41,29.02,33,8,33,0.15
2014-2-14,35.4,32.1,30.0,0.0,0.0,0.0,0,0,100,29.69,28.79,33,6,33,0.51
2014-2-15,38.9,30.4,26.0,0.0,0.0,0.0,0,0,100,29.84,29.45,20,2,20,0.00
2014-2-16,33.2,25.6,19.0,0.0,0.0,0.0,0,0,100,29.93,29.43,34,10,34,0.06
2014-2-17,28.7,19.0,11.7,0.0,0.0,0.0,0,0,100,30.34,29.93,27,8,30,0.00
2014-2-18,32.4,21.3,8.2,0.0,0.0,0.0,0,0,100,30.36,29.87,20,2,20,0.00
2014-2-19,36.9,29.8,22.6,0.0,0.0,0.0,0,0,100,30.08,29.70,13,1,13,0.20
2014-2-20,47.4,36.4,27.4,0.0,0.0,0.0,0,0,100,30.22,29.79,21,3,21,0.53
2014-2-21,38.7,35.9,33.0,0.0,0.0,0.0,0,0,100,30.16,29.63,14,3,14,1.11
2014-2-22,48.5,38.6,31.0,0.0,0.0,0.0,0,0,100,29.92,29.79,25,7,25,0.00
2014-2-23,46.4,39.7,34.1,0.0,0.0,0.0,0,0,100,29.97,29.74,14,3,15,0.00
2014-2-24,38.7,31.5,21.4,0.0,0.0,0.0,0,0,100,29.92,29.71,24,7,24,0.00
2014-2-25,32.7,22.7,18.3,0.0,0.0,0.0,0,0,100,29.96,29.84,24,4,24,0.00
2014-2-26,33.1,20.5,13.8,0.0,0.0,0.0,0,0,100,29.93,29.73,24,6,24,0.00
2014-2-27,33.6,19.5,10.4,0.0,0.0,0.0,0,0,100,29.87,29.58,29,4,29,0.00
2014-2-28,29.2,16.8,7.9,0.0,0.0,0.0,0,0,100,30.44,29.85,20,6,29,0.00
2014-3-1,34.9,23.4,7.0,0.0,0.0,0.0,0,0,100,30.45,30.06,15,5,29,0.00
2014-3-2,39.1,32.2,25.7,0.0,0.0,0.0,0,0,100,30.06,29.96,14,2,29,0.00
2014-3-3,25.7,19.4,13.1,0.0,0.0,0.0,0,0,100,30.29,30.00,21,6,29,0.00
2014-3-4,33.2,20.9,6.6,0.0,0.0,0.0,0,0,100,30.37,30.23,14,3,29,0.00
2014-3-5,25.1,21.1,15.9,0.0,0.0,0.0,0,0,100,30.50,30.24,10,2,29,0.00
2014-3-6,35.5,19.3,6.0,0.0,0.0,0.0,0,0,100,30.64,30.50,10,2,29,0.00
2014-3-7,44.2,26.6,10.1,0.0,0.0,0.0,0,0,100,30.51,29.96,11,1,29,0.00
2014-3-8,54.4,35.9,23.3,0.0,0.0,0.0,0,0,100,29.96,29.67,21,3,29,0.00
2014-3-9,44.0,33.8,27.2,0.0,0.0,0.0,0,0,100,29.92,29.84,24,4,29,0.00
2014-3-10,47.2,33.8,26.2,0.0,0.0,0.0,0,0,100,29.86,29.62,16,4,29,0.02
2014-3-11,61.2,41.0,32.8,0.0,0.0,0.0,0,0,100,29.71,29.48,16,3,29,0.06
2014-3-12,41.2,37.8,34.6,0.0,0.0,0.0,0,0,100,29.71,29.03,15,4,29,0.52
2014-3-13,34.7,21.2,15.2,0.0,0.0,0.0,0,0,100,29.89,28.99,33,10,33,0.02
2014-3-14,39.2,26.1,11.2,0.0,0.0,0.0,0,0,100,30.14,29.88,21,6,21,0.05
2014-3-15,57.4,43.0,35.2,0.0,0.0,0.0,0,0,100,29.88,29.61,28,8,28,0.01
2014-3-16,39.0,29.9,20.1,0.0,0.0,0.0,0,0,100,30.20,29.82,26,8,26,0.00
2014-3-17,32.9,21.6,13.7,0.0,0.0,0.0,0,0,100,30.20,30.04,19,2,19,0.00
2014-3-18,40.1,27.0,14.8,0.0,0.0,0.0,0,0,100,30.36,30.15,14,3,14,0.00
2014-3-19,49.4,33.6,20.3,0.0,0.0,0.0,0,0,100,30.39,29.98,18,3,18,0.00
2014-3-20,52.2,41.4,36.8,0.0,0.0,0.0,0,0,100,30.00,29.56,24,5,24,0.86
2014-3-21,46.4,37.8,31.7,0.0,0.0,0.0,0,0,100,29.98,29.69,33,7,33,20.64
2014-3-22,53.8,37.4,28.2,0.0,0.0,0.0,0,0,100,30.01,29.63,25,4,33,16.34
2014-3-23,46.3,34.5,20.7,0.0,0.0,0.0,0,0,100,30.07,29.89,23,6,23,0.00
2014-3-24,34.9,23.4,14.6,0.0,0.0,0.0,0,0,100,30.15,30.02,28,5,28,0.00
2014-3-25,41.4,29.0,18.8,0.0,0.0,0.0,0,0,100,30.14,29.95,20,5,20,0.00
2014-3-26,33.5,30.1,22.6,0.0,0.0,0.0,0,0,100,29.96,29.55,36,13,42,0.00
2014-3-27,44.7,30.8,19.3,0.0,0.0,0.0,0,0,100,30.28,29.96,31,8,31,0.00
2014-3-28,57.1,43.7,34.9,0.0,0.0,0.0,0,0,100,30.22,29.91,22,6,22,0.05
2014-3-29,49.4,43.3,38.0,0.0,0.0,0.0,0,0,100,30.25,29.98,20,4,20,0.58
2014-3-30,38.5,37.0,34.5,0.0,0.0,0.0,0,0,100,30.03,29.64,41,9,41,2.37
2014-3-31,41.9,36.4,32.7,0.0,0.0,0.0,0,0,100,29.99,29.68,22,5,22,0.48
2014-4-1,53.4,41.6,34.8,0.0,0.0,0.0,0,0,100,30.09,29.99,21,3,21,0.00
2014-4-2,47.2,38.3,31.7,0.0,0.0,0.0,0,0,100,30.12,30.03,13,2,13,0.00
2014-4-3,55.9,40.3,30.7,0.0,0.0,0.0,0,0,100,30.13,30.02,19,2,19,0.01
2014-4-4,50.4,39.7,32.0,0.0,0.0,0.0,0,0,100,30.18,29.92,15,5,15,0.32
2014-4-5,55.9,42.6,37.8,0.0,0.0,0.0,0,0,100,29.92,29.66,25,6,25,0.21
2014-4-6,59.4,44.9,34.1,0.0,0.0,0.0,0,0,100,30.15,29.89,20,4,20,0.00
2014-4-7,54.2,43.1,34.3,0.0,0.0,0.0,0,0,100,30.23,29.94,11,2,13,0.05
2014-4-8,58.7,45.3,41.7,0.0,0.0,0.0,0,0,100,29.95,29.27,26,3,26,0.76
2014-4-9,56.9,46.0,37.0,0.0,0.0,0.0,0,0,100,29.94,29.45,28,6,28,0.00
2014-4-10,65.7,47.5,31.3,0.0,0.0,0.0,0,0,100,30.13,29.94,25,7,25,0.00
2014-4-11,75.0,56.5,48.4,0.0,0.0,0.0,0,0,100,29.98,29.87,19,4,21,0.04
2014-4-12,72.1,55.2,43.6,0.0,0.0,0.0,0,0,100,30.18,29.96,17,3,18,0.07
2014-4-13,47.2,44.2,41.3,0.0,0.0,0.0,0,0,100,30.28,30.02,19,4,19,0.01
2014-4-14,78.4,58.3,39.6,0.0,0.0,0.0,0,0,100,30.03,29.81,36,9,36,0.00
2014-4-15,69.2,59.2,44.3,0.0,0.0,0.0,0,0,100,29.85,29.53,36,12,36,0.32
2014-4-16,44.6,36.2,28.9,0.0,0.0,0.0,0,0,100,30.62,29.66,23,9,29,0.19
2014-4-17,44.2,35.7,28.3,0.0,0.0,0.0,0,0,100,30.82,30.61,25,5,25,0.00
2014-4-18,45.9,37.6,28.4,0.0,0.0,0.0,0,0,100,30.66,30.24,19,3,19,0.00
2014-4-19,60.7,46.3,32.1,0.0,0.0,0.0,0,0,100,30.38,30.14,26,5,26,0.00
2014-4-20,56.4,43.2,33.3,0.0,0.0,0.0,0,0,100,30.52,30.32,14,4,14,0.00
2014-4-21,60.4,47.4,35.6,0.0,0.0,0.0,0,0,100,30.32,29.79,23,4,23,0.00
2014-4-22,61.1,52.1,43.5,0.0,0.0,0.0,0,0,100,29.79,29.42,18,2,18,0.02
2014-4-23,60.2,51.0,45.4,0.0,0.0,0.0,0,0,100,29.56,29.39,31,7,31,0.08
2014-4-24,58.2,48.2,40.6,0.0,0.0,0.0,0,0,100,29.89,29.55,36,12,36,0.00
2014-4-25,60.5,46.5,38.6,0.0,0.0,0.0,0,0,100,29.99,29.82,18,5,18,0.00
2014-4-26,44.7,43.2,41.6,0.0,0.0,0.0,0,0,100,29.86,29.78,17,2,17,0.21
2014-4-27,49.2,43.4,40.9,0.0,0.0,0.0,0,0,100,30.01,29.84,12,1,12,0.09
2014-4-28,55.6,46.6,38.5,0.0,0.0,0.0,0,0,100,30.23,29.97,21,4,23,0.00
2014-4-29,46.2,42.5,40.9,0.0,0.0,0.0,0,0,100,30.54,30.23,27,10,27,0.00
2014-4-30,47.4,42.7,40.9,0.0,0.0,0.0,0,0,100,30.55,30.20,14,3,14,0.19
2014-5-1,57.6,47.4,41.6,0.0,0.0,0.0,0,0,100,30.20,29.64,14,2,14,0.90
2014-5-2,70.5,57.1,46.6,0.0,0.0,0.0,0,0,100,29.77,29.62,28,3,28,0.01
2014-5-3,70.0,53.8,46.7,0.0,0.0,0.0,0,0,100,29.84,29.69,18,2,18,0.00
2014-5-4,64.6,54.2,47.6,0.0,0.0,0.0,0,0,100,29.69,29.47,32,6,32,0.01
2014-5-5,67.3,55.3,47.1,0.0,0.0,0.0,0,0,100,29.83,29.57,23,6,23,0.00
2014-5-6,67.3,53.2,44.1,0.0,0.0,0.0,0,0,100,30.01,29.79,21,4,21,0.00
2014-5-7,69.8,52.2,42.8,0.0,0.0,0.0,0,0,100,30.14,30.01,20,3,20,0.00
2014-5-8,67.0,52.2,42.4,0.0,0.0,0.0,0,0,100,30.18,30.06,14,3,14,0.00
2014-5-9,52.4,49.2,47.5,0.0,0.0,0.0,0,0,100,30.26,30.07,15,2,15,0.04
2014-5-10,79.2,62.5,49.4,0.0,0.0,0.0,0,0,100,30.07,29.70,28,4,28,0.10
2014-5-11,84.1,69.5,60.6,0.0,0.0,0.0,0,0,100,29.98,29.72,21,4,21,0.00
2014-5-12,85.5,64.0,51.3,0.0,0.0,0.0,0,0,100,30.13,29.93,30,4,30,0.00
2014-5-13,52.4,48.5,45.2,0.0,0.0,0.0,0,0,100,30.33,30.13,22,3,22,0.00
2014-5-14,59.8,51.9,46.0,0.0,0.0,0.0,0,0,100,30.33,30.26,12,3,12,0.00
2014-5-15,67.9,56.9,51.3,0.0,0.0,0.0,0,0,100,30.28,30.17,18,2,18,0.00
2014-5-16,66.3,55.9,52.5,0.0,0.0,0.0,0,0,100,30.20,29.98,19,5,19,0.12
2014-5-17,78.8,61.9,52.4,0.0,0.0,0.0,0,0,100,30.02,29.85,24,4,24,0.77
2014-5-18,69.0,57.8,48.6,0.0,0.0,0.0,0,0,100,30.08,29.99,14,2,14,0.00
2014-5-19,71.1,56.4,47.9,0.0,0.0,0.0,0,0,100,30.04,29.96,24,6,24,0.14
2014-5-20,71.7,58.3,49.0,0.0,0.0,0.0,0,0,100,29.98,29.91,17,2,17,0.01
2014-5-21,71.3,57.6,49.3,0.0,0.0,0.0,0,0,100,29.99,29.92,12,2,12,0.00
2014-5-22,57.1,52.3,50.0,0.0,0.0,0.0,0,0,100,29.96,29.87,8,1,9,0.15
2014-5-23,60.2,53.3,50.9,0.0,0.0,0.0,0,0,100,29.98,29.87,12,2,13,0.14
2014-5-24,65.3,55.2,50.9,0.0,0.0,0.0,0,0,100,30.05,29.95,14,2,14,0.03
2014-5-25,65.5,56.2,50.1,0.0,0.0,0.0,0,0,100,30.08,29.96,16,2,16,0.00
2014-5-26,80.8,67.8,55.3,0.0,0.0,0.0,0,0,100,29.96,29.74,20,3,20,0.00
2014-5-27,69.3,55.1,47.8,0.0,0.0,0.0,0,0,100,29.96,29.77,20,4,20,0.25
2014-5-28,48.5,46.8,42.7,0.0,0.0,0.0,0,0,100,30.21,29.93,26,6,26,0.10
2014-5-29,64.9,51.0,39.3,0.0,0.0,0.0,0,0,100,30.24,30.14,11,3,11,0.01
2014-5-30,68.8,53.7,45.1,0.0,0.0,0.0,0,0,100,30.14,29.98,18,3,18,0.01
2014-5-31,62.2,54.3,48.6,0.0,0.0,0.0,0,0,100,30.27,30.05,16,2,16,0.02
2014-6-1,68.5,57.3,46.3,0.0,0.0,0.0,0,0,100,30.33,30.20,14,3,14,0.00
2014-6-2,85.6,64.9,52.1,0.0,0.0,0.0,0,0,100,30.20,29.96,18,3,18,0.00
2014-6-3,73.1,61.2,55.1,0.0,0.0,0.0,0,0,100,30.00,29.90,12,2,14,0.00
2014-6-4,58.2,55.1,52.5,0.0,0.0,0.0,0,0,100,29.90,29.78,12,1,12,0.01
2014-6-5,60.0,56.3,54.5,0.0,0.0,0.0,0,0,100,29.79,29.64,19,1,19,0.05
2014-6-6,80.0,64.6,54.4,0.0,0.0,0.0,0,0,100,29.83,29.66,18,4,18,0.11
2014-6-7,88.0,69.5,58.2,0.0,0.0,0.0,0,0,100,29.89,29.82,14,3,14,0.02
2014-6-8,84.9,70.5,59.8,0.0,0.0,0.0,0,0,100,29.92,29.83,12,3,12,0.00
2014-6-9,87.7,72.5,63.0,0.0,0.0,0.0,0,0,100,29.95,29.85,18,4,18,0.00
2014-6-10,70.8,63.6,58.9,0.0,0.0,0.0,0,0,100,30.10,29.91,17,1,17,0.03
2014-6-11,71.7,61.3,53.8,0.0,0.0,0.0,0,0,100,30.19,30.09,13,1,13,0.00
2014-6-12,69.0,60.9,58.5,0.0,0.0,0.0,0,0,100,30.18,30.08,16,2,16,0.00
2014-6-13,59.5,58.0,56.8,0.0,0.0,0.0,0,0,100,30.08,29.79,15,0,15,0.06
2014-6-14,76.2,61.9,56.7,0.0,0.0,0.0,0,0,100,29.87,29.77,12,2,12,0.01
2014-6-15,80.9,67.6,54.9,0.0,0.0,0.0,0,0,100,30.02,29.86,22,7,22,0.00
2014-6-16,78.2,65.1,55.1,0.0,0.0,0.0,0,0,100,30.13,30.00,15,5,15,0.00
2014-6-17,82.2,70.1,62.3,0.0,0.0,0.0,0,0,100,30.02,29.81,16,4,16,0.01
2014-6-18,82.8,75.0,64.0,0.0,0.0,0.0,0,0,100,29.88,29.64,30,8,30,0.00
2014-6-19,86.2,74.9,62.6,0.0,0.0,0.0,0,0,100,29.94,29.85,20,6,20,0.00
2014-6-20,77.1,65.4,54.7,0.0,0.0,0.0,0,0,100,29.95,29.85,25,5,25,0.00
2014-6-21,78.9,64.2,50.8,0.0,0.0,0.0,0,0,100,29.95,29.84,18,3,18,0.00
2014-6-22,78.1,63.2,51.1,0.0,0.0,0.0,0,0,100,30.02,29.90,11,3,11,0.00
2014-6-23,79.3,64.5,53.0,0.0,0.0,0.0,0,0,100,30.13,30.02,17,2,17,0.00
2014-6-24,80.2,67.6,59.3,0.0,0.0,0.0,0,0,100,30.14,29.95,20,4,20,0.00
2014-6-25,94.2,75.7,62.1,0.0,0.0,0.0,0,0,100,29.96,29.79,12,4,15,0.00
2014-6-26,69.2,63.6,58.3,0.0,0.0,0.0,0,0,100,29.99,29.75,13,3,13,0.02
2014-6-27,78.9,66.8,55.1,0.0,0.0,0.0,0,0,100,30.18,29.98,9,3,13,0.01
2014-6-28,83.3,68.2,54.8,0.0,0.0,0.0,0,0,100,30.25,30.18,10,2,10,0.00
2014-6-29,80.0,70.0,59.4,0.0,0.0,0.0,0,0,100,30.23,30.05,17,3,17,0.00
2014-6-30,95.8,78.7,62.8,0.0,0.0,0.0,0,0,100,30.06,29.86,16,6,16,0.00
2014-7-1,92.7,80.0,68.6,0.0,0.0,0.0,0,0,100,29.88,29.73,20,6,20,0.00
2014-7-2,88.8,76.3,64.8,0.0,0.0,0.0,0,0,100,29.91,29.74,18,5,23,0.00
2014-7-3,82.4,70.3,63.9,0.0,0.0,0.0,0,0,100,30.01,29.87,25,3,25,0.03
2014-7-4,74.7,66.4,61.1,0.0,0.0,0.0,0,0,100,29.98,29.77,9,1,10,0.01
2014-7-5,81.1,68.9,55.6,0.0,0.0,0.0,0,0,100,29.93,29.70,32,9,32,0.04
2014-7-6,88.6,75.0,62.9,0.0,0.0,0.0,0,0,100,29.95,29.80,25,8,25,0.04
2014-7-7,90.5,74.5,66.1,0.0,0.0,0.0,0,0,100,29.83,29.63,24,6,24,0.24
2014-7-8,92.8,76.7,64.9,0.0,0.0,0.0,0,0,100,29.76,29.63,23,5,23,0.28
2014-7-9,92.3,79.2,68.2,0.0,0.0,0.0,0,0,100,29.93,29.58,21,6,21,0.03
2014-7-10,86.3,73.1,63.7,0.0,0.0,0.0,0,0,100,30.12,29.89,15,2,15,0.27
2014-7-11,80.5,68.4,62.2,0.0,0.0,0.0,0,0,100,30.22,30.12,12,4,12,0.00
2014-7-12,81.3,68.4,58.3,0.0,0.0,0.0,0,0,100,30.20,30.08,14,2,14,0.00
2014-7-13,89.3,75.0,65.9,0.0,0.0,0.0,0,0,100,30.08,29.84,23,6,23,0.06
2014-7-14,88.8,73.5,63.5,0.0,0.0,0.0,0,0,100,29.87,29.81,17,4,17,0.00
2014-7-15,89.4,67.6,59.7,0.0,0.0,0.0,0,0,100,29.84,29.70,29,3,29,0.47
2014-7-16,74.2,64.8,58.9,0.0,0.0,0.0,0,0,100,29.81,29.73,11,1,11,0.68
2014-7-17,80.3,67.3,61.4,0.0,0.0,0.0,0,0,100,30.04,29.81,16,3,16,0.00
2014-7-18,82.7,67.5,58.0,0.0,0.0,0.0,0,0,100,30.20,30.04,14,3,14,0.00
2014-7-19,73.6,65.2,58.7,0.0,0.0,0.0,0,0,100,30.26,30.20,10,1,10,0.00
2014-7-20,74.0,65.7,60.0,0.0,0.0,0.0,0,0,100,30.21,30.14,11,2,11,0.00
2014-7-21,77.3,65.3,57.2,0.0,0.0,0.0,0,0,100,30.20,30.13,10,0,10,0.00
2014-7-22,81.1,70.4,59.7,0.0,0.0,0.0,0,0,100,30.13,29.93,16,3,16,0.00
2014-7-23,95.7,80.4,67.2,0.0,0.0,0.0,0,0,100,29.93,29.68,21,6,21,0.16
2014-7-24,76.6,69.1,64.0,0.0,0.0,0.0,0,0,100,29.87,29.71,13,2,13,0.00
2014-7-25,87.3,71.3,56.9,0.0,0.0,0.0,0,0,100,29.95,29.87,14,3,14,0.00
2014-7-26,88.8,74.0,62.4,0.0,0.0,0.0,0,0,100,29.95,29.81,17,5,17,0.00
2014-7-27,76.3,66.7,62.6,0.0,0.0,0.0,0,0,100,29.86,29.64,14,4,14,0.29
2014-7-28,72.8,65.5,61.5,0.0,0.0,0.0,0,0,100,29.65,29.40,25,4,25,0.68
2014-7-29,82.3,67.3,60.9,0.0,0.0,0.0,0,0,100,29.91,29.50,23,5,23,0.00
2014-7-30,74.6,65.6,58.5,0.0,0.0,0.0,0,0,100,30.02,29.91,9,2,9,0.00
2014-7-31,78.8,66.5,57.4,0.0,0.0,0.0,0,0,100,30.13,30.01,18,2,18,0.03
2014-8-1,79.7,66.4,59.9,0.0,0.0,0.0,0,0,100,30.20,30.13,26,2,26,0.82
2014-8-2,70.5,65.1,62.5,0.0,0.0,0.0,0,0,100,30.21,30.11,12,1,12,0.00
2014-8-3,75.3,64.3,58.4,0.0,0.0,0.0,0,0,100,30.13,30.03,10,2,10,0.00
2014-8-4,79.9,68.1,60.9,0.0,0.0,0.0,0,0,100,30.04,29.95,11,2,12,0.00
2014-8-5,83.8,71.5,64.3,0.0,0.0,0.0,0,0,100,30.00,29.85,16,3,16,0.00
2014-8-6,86.8,73.2,65.8,0.0,0.0,0.0,0,0,100,29.86,29.74,19,4,20,0.00
2014-8-7,86.1,66.6,58.7,0.0,0.0,0.0,0,0,100,29.90,29.80,14,4,14,0.19
2014-8-8,88.1,70.0,56.2,0.0,0.0,0.0,0,0,100,29.99,29.90,14,4,14,0.00
2014-8-9,84.9,70.9,60.4,0.0,0.0,0.0,0,0,100,30.06,29.98,11,4,12,0.00
2014-8-10,87.7,70.8,60.1,0.0,0.0,0.0,0,0,100,30.12,30.05,11,3,11,0.00
2014-8-11,85.5,72.3,61.6,0.0,0.0,0.0,0,0,100,30.13,30.05,13,3,13,0.00
2014-8-12,82.2,70.0,63.6,0.0,0.0,0.0,0,0,100,30.11,30.02,19,4,19,0.00
2014-8-13,66.3,65.2,63.0,0.0,0.0,0.0,0,0,100,30.03,29.58,29,4,29,2.29
2014-8-14,79.4,66.8,58.7,0.0,0.0,0.0,0,0,100,29.84,29.61,13,2,15,0.01
2014-8-15,79.8,64.1,56.3,0.0,0.0,0.0,0,0,100,29.88,29.82,16,3,16,0.00
2014-8-16,80.4,68.7,58.4,0.0,0.0,0.0,0,0,100,29.94,29.87,18,5,18,0.00
2014-8-17,83.3,69.1,61.4,0.0,0.0,0.0,0,0,100,29.88,29.74,19,4,19,0.00
2014-8-18,79.9,67.4,58.9,0.0,0.0,0.0,0,0,100,29.85,29.75,20,5,20,0.00
2014-8-19,79.7,64.4,53.5,0.0,0.0,0.0,0,0,100,29.95,29.84,14,3,14,0.00
2014-8-20,81.5,66.4,55.7,0.0,0.0,0.0,0,0,100,30.04,29.94,9,2,10,0.00
2014-8-21,76.0,64.5,55.2,0.0,0.0,0.0,0,0,100,30.09,30.03,9,1,9,0.00
2014-8-22,67.7,63.3,60.5,0.0,0.0,0.0,0,0,100,30.10,30.06,19,1,19,0.13
2014-8-23,74.1,64.4,56.9,0.0,0.0,0.0,0,0,100,30.12,30.08,11,1,12,0.00
2014-8-24,78.7,67.2,55.4,0.0,0.0,0.0,0,0,100,30.13,30.07,10,3,10,0.00
2014-8-25,84.3,71.5,62.1,0.0,0.0,0.0,0,0,100,30.13,30.07,9,3,10,0.00
2014-8-26,81.2,70.9,62.9,0.0,0.0,0.0,0,0,100,30.13,30.00,17,4,17,0.00
2014-8-27,95.0,79.4,67.0,0.0,0.0,0.0,0,0,100,30.00,29.79,15,4,15,0.00
2014-8-28,82.5,72.4,61.5,0.0,0.0,0.0,0,0,100,29.95,29.75,22,5,22,0.00
2014-8-29,76.3,64.1,55.5,0.0,0.0,0.0,0,0,100,30.26,29.95,12,4,12,0.00
2014-8-30,75.2,65.2,56.1,0.0,0.0,0.0,0,0,100,30.28,30.09,20,5,20,0.00
2014-8-31,87.6,74.7,64.6,0.0,0.0,0.0,0,0,100,30.10,29.89,20,5,20,0.31
2014-9-1,87.5,73.2,67.3,0.0,0.0,0.0,0,0,100,29.95,29.88,10,2,13,0.00
2014-9-2,86.5,73.3,64.0,0.0,0.0,0.0,0,0,100,29.90,29.68,30,2,50,0.86
2014-9-3,85.2,74.2,66.2,0.0,0.0,0.0,0,0,100,30.04,29.66,17,2,18,0.00
2014-9-4,81.0,68.9,59.4,0.0,0.0,0.0,0,0,100,30.17,30.04,12,3,12,0.00
2014-9-5,92.8,77.1,64.2,0.0,0.0,0.0,0,0,100,30.12,29.92,19,4,19,0.00
2014-9-6,91.8,76.5,65.5,0.0,0.0,0.0,0,0,100,29.92,29.50,22,4,22,0.38
2014-9-7,78.5,66.3,59.4,0.0,0.0,0.0,0,0,100,30.19,29.88,14,2,15,0.04
2014-9-8,76.2,63.2,53.7,0.0,0.0,0.0,0,0,100,30.39,30.19,12,2,12,0.00
2014-9-9,70.5,62.8,53.4,0.0,0.0,0.0,0,0,100,30.36,30.18,17,2,20,0.00
2014-9-10,72.2,63.3,57.7,0.0,0.0,0.0,0,0,100,30.19,30.02,14,1,14,0.00
2014-9-11,74.3,67.0,60.8,0.0,0.0,0.0,0,0,100,30.02,29.73,16,2,16,0.01
2014-9-12,74.1,62.9,55.4,0.0,0.0,0.0,0,0,100,30.23,29.85,20,4,20,0.00
2014-9-13,63.2,56.1,48.0,0.0,0.0,0.0,0,0,100,30.28,30.09,21,4,21,0.18
2014-9-14,68.7,57.1,48.0,0.0,0.0,0.0,0,0,100,30.20,30.08,20,4,20,0.00
2014-9-15,68.5,55.0,44.6,0.0,0.0,0.0,0,0,100,30.23,30.07,13,3,13,0.00
2014-9-16,65.8,57.4,51.9,0.0,0.0,0.0,0,0,100,30.09,29.93,9,1,10,0.00
2014-9-17,74.8,59.7,50.3,0.0,0.0,0.0,0,0,100,30.00,29.91,15,2,15,0.00
2014-9-18,75.5,60.7,48.4,0.0,0.0,0.0,0,0,100,30.14,29.90,17,4,18,0.00
2014-9-19,63.2,51.3,42.5,0.0,0.0,0.0,0,0,100,30.41,30.14,16,4,16,0.00
2014-9-20,70.8,56.6,39.2,0.0,0.0,0.0,0,0,100,30.39,30.05,19,3,19,0.00
2014-9-21,72.5,63.3,57.9,0.0,0.0,0.0,0,0,100,30.06,29.51,18,3,18,0.17
2014-9-22,73.9,64.1,50.8,0.0,0.0,0.0,0,0,100,30.05,29.48,27,5,27,0.01
2014-9-23,74.0,58.0,44.9,0.0,0.0,0.0,0,0,100,30.39,30.05,16,3,16,0.00
2014-9-24,70.4,58.3,48.2,0.0,0.0,0.0,0,0,100,30.62,30.39,13,3,13,0.00
2014-9-25,56.9,50.7,47.3,0.0,0.0,0.0,0,0,100,30.54,30.23,6,0,6,0.00
2014-9-26,73.2,58.6,47.1,0.0,0.0,0.0,0,0,100,30.24,30.12,9,1,9,0.00
2014-9-27,87.7,66.6,53.8,0.0,0.0,0.0,0,0,100,30.15,30.08,10,1,10,0.00
2014-9-28,83.3,67.5,56.5,0.0,0.0,0.0,0,0,100,30.13,29.92,11,2,12,0.00
2014-9-29,74.1,62.4,55.5,0.0,0.0,0.0,0,0,100,30.02,29.91,23,5,23,0.00
2014-9-30,57.7,56.2,54.0,0.0,0.0,0.0,0,0,100,30.04,29.98,23,3,23,0.01
2014-10-1,57.4,56.4,55.3,0.0,0.0,0.0,0,0,100,30.12,30.01,21,4,21,0.50
2014-10-2,57.1,53.7,47.8,0.0,0.0,0.0,0,0,100,30.18,30.10,24,5,24,0.24
2014-10-3,60.1,53.6,45.9,0.0,0.0,0.0,0,0,100,30.14,29.89,14,4,18,0.00
2014-10-4,60.5,57.5,53.2,0.0,0.0,0.0,0,0,100,29.89,29.51,14,2,14,0.32
2014-10-5,66.0,56.9,47.8,0.0,0.0,0.0,0,0,100,29.92,29.50,18,4,22,0.00
2014-10-6,65.5,54.4,40.3,0.0,0.0,0.0,0,0,100,30.14,29.92,16,4,16,0.00
2014-10-7,67.0,61.9,57.7,0.0,0.0,0.0,0,0,100,30.14,29.95,21,7,21,0.01
2014-10-8,74.2,63.9,57.7,0.0,0.0,0.0,0,0,100,29.96,29.65,18,6,20,0.05
2014-10-9,67.3,56.4,48.0,0.0,0.0,0.0,0,0,100,29.95,29.82,23,6,23,0.00
2014-10-10,66.3,54.3,43.9,0.0,0.0,0.0,0,0,100,30.11,29.95,16,3,16,0.00
2014-10-11,53.7,47.4,44.7,0.0,0.0,0.0,0,0,100,30.13,30.05,10,0,10,0.18
2014-10-12,65.8,49.9,39.3,0.0,0.0,0.0,0,0,100,30.28,30.10,12,3,12,0.00
2014-10-13,66.3,54.1,40.1,0.0,0.0,0.0,0,0,100,30.35,30.22,19,2,19,0.00
2014-10-14,78.7,63.2,55.9,0.0,0.0,0.0,0,0,100,30.24,30.12,18,2,18,0.00
2014-10-15,72.8,62.3,56.8,0.0,0.0,0.0,0,0,100,30.13,29.96,18,2,18,0.00
2014-10-16,62.7,60.6,58.7,0.0,0.0,0.0,0,0,100,29.96,29.63,20,4,20,1.00
2014-10-17,73.0,62.5,56.6,0.0,0.0,0.0,0,0,100,29.66,29.57,20,4,20,0.01
2014-10-18,71.8,59.8,54.6,0.0,0.0,0.0,0,0,100,29.64,29.45,18,3,18,0.20
2014-10-19,58.0,49.6,42.2,0.0,0.0,0.0,0,0,100,29.92,29.54,23,8,23,0.00
2014-10-20,59.9,47.3,37.2,0.0,0.0,0.0,0,0,100,30.02,29.92,19,5,19,0.00
2014-10-21,61.1,52.3,46.1,0.0,0.0,0.0,0,0,100,30.00,29.92,13,2,13,0.02
2014-10-22,53.5,50.3,48.5,0.0,0.0,0.0,0,0,100,30.06,29.84,43,11,43,0.76
2014-10-23,53.1,50.4,47.8,0.0,0.0,0.0,0,0,100,29.84,29.62,37,10,37,2.08
2014-10-24,53.4,49.4,46.5,0.0,0.0,0.0,0,0,100,29.72,29.64,18,5,20,0.03
2014-10-25,67.3,54.3,44.9,0.0,0.0,0.0,0,0,100,29.73,29.45,16,4,16,0.00
2014-10-26,59.2,52.0,45.3,0.0,0.0,0.0,0,0,100,29.65,29.39,23,6,23,0.00
2014-10-27,60.2,50.2,44.4,0.0,0.0,0.0,0,0,100,30.01,29.64,26,5,26,0.00
2014-10-28,64.1,50.3,41.6,0.0,0.0,0.0,0,0,100,30.08,29.92,14,1,14,0.00
2014-10-29,63.2,54.4,49.2,0.0,0.0,0.0,0,0,100,29.92,29.76,17,2,17,0.13
2014-10-30,60.4,48.2,41.2,0.0,0.0,0.0,0,0,100,29.99,29.83,16,2,16,0.00
2014-10-31,53.8,46.8,39.0,0.0,0.0,0.0,0,0,100,30.05,29.97,19,4,19,0.00
2014-11-1,43.9,41.3,38.1,0.0,0.0,0.0,0,0,100,29.97,29.80,19,6,19,0.36
2014-11-2,39.9,37.7,33.6,0.0,0.0,0.0,0,0,100,29.82,29.59,29,10,30,0.13
2014-11-3,51.3,42.5,34.7,0.0,0.0,0.0,0,0,100,30.03,29.76,25,7,28,0.00
2014-11-4,59.4,46.9,35.2,0.0,0.0,0.0,0,0,100,30.12,29.97,14,1,14,0.00
2014-11-5,65.0,53.5,45.7,0.0,0.0,0.0,0,0,100,30.09,29.91,22,4,22,0.00
2014-11-6,50.4,47.2,43.0,0.0,0.0,0.0,0,0,100,30.09,29.47,22,3,22,0.47
2014-11-7,48.1,43.1,38.0,0.0,0.0,0.0,0,0,100,29.75,29.42,28,8,28,0.01
2014-11-8,50.7,41.0,33.2,0.0,0.0,0.0,0,0,100,29.93,29.75,27,5,27,0.00
2014-11-9,55.2,44.8,37.5,0.0,0.0,0.0,0,0,100,30.00,29.85,11,3,11,0.00
2014-11-10,61.2,44.9,34.0,0.0,0.0,0.0,0,0,100,30.19,29.99,19,2,19,0.00
2014-11-11,59.9,47.8,36.8,0.0,0.0,0.0,0,0,100,30.18,29.97,17,2,17,0.00
2014-11-12,53.9,50.3,42.1,0.0,0.0,0.0,0,0,100,29.98,29.83,16,1,16,0.00
2014-11-13,53.5,43.4,35.6,0.0,0.0,0.0,0,0,100,30.06,29.94,13,2,13,0.05
2014-11-14,44.1,35.8,29.9,0.0,0.0,0.0,0,0,100,30.08,29.87,16,3,16,0.17
2014-11-15,40.2,32.2,27.1,0.0,0.0,0.0,0,0,100,30.31,30.08,19,4,19,0.00
2014-11-16,43.4,35.5,26.6,0.0,0.0,0.0,0,0,100,30.36,30.10,16,4,16,0.00
2014-11-17,47.0,38.9,35.3,0.0,0.0,0.0,0,0,100,30.10,29.42,16,2,16,1.13
2014-11-18,38.9,33.3,25.5,0.0,0.0,0.0,0,0,100,29.87,29.41,28,8,28,0.00
2014-11-19,39.5,29.7,24.1,0.0,0.0,0.0,0,0,100,30.10,29.87,26,7,26,0.00
2014-11-20,47.7,36.0,29.2,0.0,0.0,0.0,0,0,100,30.04,29.72,26,7,26,0.00
2014-11-21,34.6,29.0,24.8,0.0,0.0,0.0,0,0,100,30.37,29.89,27,7,27,0.00
2014-11-22,40.7,32.7,23.0,0.0,0.0,0.0,0,0,100,30.39,30.00,24,8,24,0.00
2014-11-23,60.7,49.2,40.0,0.0,0.0,0.0,0,0,100,30.12,30.01,18,5,18,0.00
2014-11-24,63.4,54.5,42.5,0.0,0.0,0.0,0,0,100,30.08,29.52,30,9,30,0.38
2014-11-25,60.6,55.3,43.7,0.0,0.0,0.0,0,0,100,30.09,29.64,14,6,14,0.00
2014-11-26,45.5,38.2,32.1,0.0,0.0,0.0,0,0,100,30.20,29.68,15,2,19,0.38
2014-11-27,35.4,32.9,30.2,0.0,0.0,0.0,0,0,100,30.00,29.66,15,2,15,0.35
2014-11-28,61.9,28.1,22.4,0.0,0.0,0.0,0,0,100,30.06,24.94,18,4,18,0.16
2014-11-29,34.3,25.9,19.4,0.0,0.0,0.0,0,0,100,0.00,0.00,12,3,12,0.03
2014-11-30,52.8,43.3,30.0,0.0,0.0,0.0,0,0,100,0.00,0.00,20,5,20,0.01
2014-12-1,62.9,49.6,37.2,0.0,0.0,0.0,0,0,100,0.00,0.00,20,7,20,0.00
2014-12-2,40.2,34.6,30.7,0.0,0.0,0.0,0,0,100,0.00,0.00,19,6,20,0.06
2014-12-3,44.2,35.6,30.3,0.0,0.0,0.0,0,0,100,0.00,0.00,20,2,20,0.70
2014-12-4,43.7,34.4,26.2,0.0,0.0,0.0,0,0,100,0.00,0.00,19,4,19,0.00
2014-12-5,40.9,29.1,21.5,0.0,0.0,0.0,0,0,100,0.00,0.00,23,4,23,0.06
2014-12-6,44.4,37.0,33.2,0.0,0.0,0.0,0,0,100,0.00,0.00,19,3,19,0.98
2014-12-7,36.1,29.9,17.3,0.0,0.0,0.0,0,0,100,0.00,0.00,22,4,22,0.03
2014-12-8,25.7,19.1,14.0,0.0,0.0,0.0,0,0,100,0.00,0.00,14,6,14,0.00
2014-12-9,45.4,36.3,25.0,0.0,0.0,0.0,0,0,100,0.00,0.00,38,8,38,5.50
2014-12-10,41.7,38.1,36.8,0.0,0.0,0.0,0,0,100,0.00,0.00,31,5,31,0.29
2014-12-11,39.2,34.6,31.6,0.0,0.0,0.0,0,0,100,0.00,0.00,18,6,18,0.07
2014-12-12,35.8,32.9,30.5,0.0,0.0,0.0,0,0,100,0.00,40.00,11,4,12,0.02
2014-12-13,35.1,32.5,30.5,0.0,0.0,0.0,0,0,100,0.00,0.00,14,6,16,0.03
2014-12-14,44.0,35.6,31.4,0.0,0.0,0.0,0,0,100,0.00,0.00,14,5,14,0.00
2014-12-15,47.0,35.3,30.5,0.0,0.0,0.0,0,0,100,0.00,0.00,11,1,11,0.00
2014-12-16,44.2,37.0,32.6,0.0,0.0,0.0,0,0,100,0.00,0.00,10,1,10,0.01
2014-12-17,45.0,41.9,39.0,0.0,0.0,0.0,0,0,100,0.00,0.00,18,4,18,0.49
2014-12-18,43.2,38.5,33.9,0.0,0.0,0.0,0,0,100,0.00,0.00,27,8,27,0.06
2014-12-19,43.2,32.9,27.0,0.0,0.0,0.0,0,0,100,0.00,0.00,17,4,17,0.00
2014-12-20,34.5,30.0,24.1,0.0,0.0,0.0,0,0,100,0.00,0.00,19,5,19,0.00
2014-12-21,34.9,30.0,25.1,0.0,0.0,0.0,0,0,100,0.00,0.00,17,1,17,0.00
2014-12-22,42.3,35.8,31.3,0.0,0.0,0.0,0,0,100,0.00,0.00,15,2,15,0.15
2014-12-23,43.3,41.6,38.9,0.0,0.0,0.0,0,0,100,0.00,0.00,14,6,18,0.65
2014-12-24,42.7,40.2,38.6,0.0,0.0,0.0,0,0,100,0.00,0.00,14,3,15,0.61
2014-12-25,56.2,45.5,39.5,0.0,0.0,0.0,0,0,100,0.00,0.00,25,5,25,0.21
2014-12-26,49.6,41.6,35.3,0.0,0.0,0.0,0,0,100,0.00,0.00,20,4,20,0.00
2014-12-27,52.1,41.5,34.9,0.0,0.0,0.0,0,0,100,0.00,0.00,16,2,16,0.00
2014-12-28,48.9,44.5,38.0,0.0,0.0,0.0,0,0,100,0.00,0.00,17,5,17,0.08
2014-12-29,43.4,34.4,25.6,0.0,0.0,0.0,0,0,100,0.00,0.00,20,4,20,0.00
2014-12-30,29.2,23.1,17.2,0.0,0.0,0.0,0,0,100,0.00,0.00,22,4,22,0.00
2014-12-31,30.6,21.6,15.0,0.0,0.0,0.0,0,0,100,0.00,0.00,20,3,20,0.00
2015-1-1,33.2,26.3,18.6,0.0,0.0,0.0,0,0,100,0.00,0.00,24,9,24,0.00
2015-1-2,41.2,32.2,23.8,0.0,0.0,0.0,0,0,100,0.00,0.00,24,6,24,0.00